Time;durP1;ratioP1;P1;durP2;ratioP2;P2;SDS_P1;SDS_P2;PMS_P1;PMS_P2;Temp;Humidity;BMP_temperature;BMP_pressure;BME280_temperature;BME280_humidity;BME280_pressure;Samples;Min_cycle;Max_cycle;Signal;HPM_P1;HPM_P2
2021/04/23 00:00:28;;;;;;;11.90;4.20;;;;;;;2.44;100.00;101455.69;4961467;28;20057;-84
2021/04/23 00:02:58;;;;;;;11.27;6.23;;;;;;;2.41;100.00;101450.38;4957674;28;20097;-85
2021/04/23 00:05:25;;;;;;;8.97;4.50;;;;;;;2.41;100.00;101458.19;4954472;28;20457;-84
2021/04/23 00:07:51;;;;;;;8.40;4.43;;;;;;;2.35;100.00;101451.06;4976752;28;20045;-85
2021/04/23 00:10:20;;;;;;;7.70;4.80;;;;;;;2.36;100.00;101452.00;4976886;28;20054;-84
2021/04/23 00:12:46;;;;;;;8.23;4.00;;;;;;;2.25;100.00;101457.78;4953181;28;20104;-85
2021/04/23 00:15:15;;;;;;;8.93;4.33;;;;;;;2.19;100.00;101455.03;4960747;28;20037;-85
2021/04/23 00:17:41;;;;;;;8.37;5.03;;;;;;;2.11;100.00;101458.28;4969901;28;20042;-85
2021/04/23 00:20:23;;;;;;;8.87;4.30;;;;;;;2.09;100.00;101455.63;4954522;28;20073;-85
2021/04/23 00:22:53;;;;;;;10.43;4.55;;;;;;;2.05;100.00;101455.50;4974231;28;20042;-84
2021/04/23 00:25:25;;;;;;;9.70;4.30;;;;;;;2.04;100.00;101453.75;4958607;28;20050;-85
2021/04/23 00:28:01;;;;;;;10.43;4.27;;;;;;;1.93;100.00;101449.13;4961659;28;20688;-86
2021/04/23 00:30:30;;;;;;;8.50;3.80;;;;;;;1.89;100.00;101457.69;4974230;28;20084;-87
2021/04/23 00:32:56;;;;;;;9.37;5.20;;;;;;;1.82;100.00;101449.66;4955175;28;20046;-87
2021/04/23 00:35:26;;;;;;;10.50;4.70;;;;;;;1.83;100.00;101454.03;4961723;28;20049;-87
2021/04/23 00:37:53;;;;;;;9.53;3.80;;;;;;;1.78;100.00;101447.84;4972525;28;20065;-84
2021/04/23 00:40:25;;;;;;;8.23;3.73;;;;;;;1.70;100.00;101450.22;4955549;28;20046;-85
2021/04/23 00:42:52;;;;;;;8.23;4.23;;;;;;;1.65;100.00;101450.06;4955643;28;20042;-86
2021/04/23 00:45:23;;;;;;;8.67;4.60;;;;;;;1.64;100.00;101445.72;4958220;28;20050;-84
2021/04/23 00:47:51;;;;;;;10.73;4.90;;;;;;;1.65;100.00;101444.88;4971521;28;20037;-84
2021/04/23 00:50:43;;;;;;;12.43;4.70;;;;;;;1.67;100.00;101444.91;4967273;28;20100;-85
2021/04/23 00:53:21;;;;;;;12.13;4.87;;;;;;;1.68;100.00;101449.28;4952270;28;20041;-87
2021/04/23 00:55:49;;;;;;;10.63;4.63;;;;;;;1.66;100.00;101440.53;4959913;28;20534;-86
2021/04/23 00:58:18;;;;;;;10.50;4.70;;;;;;;1.66;100.00;101445.75;4960051;28;20046;-87
2021/04/23 01:00:47;;;;;;;12.97;5.70;;;;;;;1.67;100.00;101442.28;4977045;28;20060;-85
2021/04/23 01:03:15;;;;;;;14.33;5.07;;;;;;;1.68;100.00;101451.88;4992123;28;20211;-86
2021/04/23 01:05:41;;;;;;;10.63;4.90;;;;;;;1.70;100.00;101447.63;4973672;28;20057;-85
2021/04/23 01:08:08;;;;;;;13.30;4.80;;;;;;;1.72;100.00;101447.66;4959169;28;20042;-86
2021/04/23 01:10:35;;;;;;;10.87;5.67;;;;;;;1.64;100.00;101447.44;4961790;28;20034;-84
2021/04/23 01:13:01;;;;;;;12.63;5.67;;;;;;;1.62;100.00;101447.41;4958579;28;20453;-85
2021/04/23 01:15:27;;;;;;;10.50;4.80;;;;;;;1.61;100.00;101449.97;4978571;28;20062;-85
2021/04/23 01:17:54;;;;;;;12.70;6.40;;;;;;;1.61;100.00;101443.03;4951562;28;20048;-85
2021/04/23 01:20:21;;;;;;;11.23;5.23;;;;;;;1.61;100.00;101443.03;4962028;28;20041;-84
2021/04/23 01:22:47;;;;;;;9.30;4.83;;;;;;;1.53;100.00;101456.66;4969336;28;20095;-85
2021/04/23 01:25:15;;;;;;;13.33;5.27;;;;;;;1.47;100.00;101452.16;4954588;28;20073;-86
2021/04/23 01:27:41;;;;;;;12.10;4.90;;;;;;;1.46;100.00;101452.13;4962804;28;20042;-85
2021/04/23 01:30:10;;;;;;;12.30;4.83;;;;;;;1.40;100.00;101458.03;4958057;28;20488;-84
2021/04/23 01:32:38;;;;;;;14.47;5.83;;;;;;;1.46;100.00;101454.72;4971473;28;20122;-85
2021/04/23 01:35:12;;;;;;;11.47;5.13;;;;;;;1.42;100.00;101451.13;4957091;28;20108;-85
2021/04/23 01:37:38;;;;;;;11.07;4.33;;;;;;;1.39;100.00;101457.13;4973590;28;20045;-84
2021/04/23 01:40:06;;;;;;;9.17;4.80;;;;;;;1.47;100.00;101456.50;4974380;28;20292;-85
2021/04/23 01:42:33;;;;;;;10.47;4.83;;;;;;;1.52;100.00;101460.13;4966794;28;20038;-85
2021/04/23 01:44:59;;;;;;;16.20;7.30;;;;;;;1.57;100.00;101459.38;4980699;28;20049;-84
2021/04/23 01:47:25;;;;;;;13.43;5.73;;;;;;;1.62;100.00;101460.41;4971360;28;20065;-84
2021/04/23 01:49:53;;;;;;;9.63;5.13;;;;;;;1.67;100.00;101458.81;4964198;28;20054;-85
2021/04/23 01:52:21;;;;;;;15.30;5.90;;;;;;;1.69;100.00;101462.38;4966219;28;20115;-84
2021/04/23 01:54:48;;;;;;;9.63;5.13;;;;;;;1.73;100.00;101463.31;4982009;28;20043;-85
2021/04/23 01:57:15;;;;;;;14.77;4.90;;;;;;;1.72;100.00;101471.09;4960802;28;20038;-83
2021/04/23 01:59:47;;;;;;;11.03;5.20;;;;;;;1.65;100.00;101464.81;4991856;28;20042;-84
2021/04/23 02:02:14;;;;;;;11.30;4.90;;;;;;;1.69;100.00;101464.09;4964449;28;20042;-85
2021/04/23 02:04:41;;;;;;;12.70;5.77;;;;;;;1.62;100.00;101463.03;4962928;28;20038;-83
2021/04/23 02:07:08;;;;;;;13.53;5.40;;;;;;;1.64;100.00;101471.75;4952171;28;20038;-85
2021/04/23 02:09:36;;;;;;;12.80;5.43;;;;;;;1.66;100.00;101469.19;4966465;28;20049;-84
2021/04/23 02:12:06;;;;;;;12.03;5.67;;;;;;;1.64;100.00;101476.09;4980525;28;20046;-84
2021/04/23 02:14:32;;;;;;;11.07;5.27;;;;;;;1.64;100.00;101471.75;4964449;28;20053;-84
2021/04/23 02:16:58;;;;;;;10.70;5.40;;;;;;;1.63;100.00;101474.31;4969295;28;20038;-84
2021/04/23 02:19:25;;;;;;;11.73;5.67;;;;;;;1.63;100.00;101480.41;4967828;28;20053;-85
2021/04/23 02:21:51;;;;;;;11.50;5.63;;;;;;;1.68;100.00;101481.44;4968875;28;20049;-84
2021/04/23 02:24:18;;;;;;;13.97;5.90;;;;;;;1.69;100.00;101474.50;4980149;28;20064;-85
2021/04/23 02:26:44;;;;;;;15.20;6.40;;;;;;;1.72;100.00;101476.31;4964217;28;20129;-84
2021/04/23 02:29:13;;;;;;;14.07;6.03;;;;;;;1.72;100.00;101484.13;4966121;28;20100;-86
2021/04/23 02:31:43;;;;;;;14.33;6.03;;;;;;;1.75;100.00;101479.88;4966922;28;20046;-85
2021/04/23 02:34:12;;;;;;;11.97;5.60;;;;;;;1.77;100.00;101488.63;4983179;28;20133;-85
2021/04/23 02:36:40;;;;;;;9.73;5.47;;;;;;;1.75;100.00;101495.50;4960080;28;20086;-84
2021/04/23 02:39:09;;;;;;;13.27;5.67;;;;;;;1.75;100.00;101487.69;4965967;28;20384;-85
2021/04/23 02:41:35;;;;;;;13.50;5.73;;;;;;;1.80;100.00;101496.53;4965976;28;20562;-84
2021/04/23 02:44:02;;;;;;;12.77;5.33;;;;;;;1.82;100.00;101496.56;4983217;28;20049;-84
2021/04/23 02:46:31;;;;;;;13.40;6.03;;;;;;;1.84;100.00;101500.97;4965923;28;20050;-85
2021/04/23 02:48:58;;;;;;;11.83;4.67;;;;;;;1.83;100.00;101500.94;4982673;28;20045;-85
2021/04/23 02:51:28;;;;;;;10.83;5.80;;;;;;;1.89;100.00;101498.50;4965878;28;20065;-85
2021/04/23 02:53:56;;;;;;;13.03;5.73;;;;;;;1.91;100.00;101489.88;4992843;28;20046;-86
2021/04/23 02:56:23;;;;;;;13.17;5.30;;;;;;;1.96;100.00;101500.44;4968007;28;20620;-86
2021/04/23 02:58:51;;;;;;;11.97;5.30;;;;;;;1.97;100.00;101500.47;4960541;28;20141;-85
2021/04/23 03:01:20;;;;;;;11.30;4.90;;;;;;;2.02;100.00;101505.84;4986483;28;20595;-85
2021/04/23 03:03:51;;;;;;;12.55;5.60;;;;;;;2.07;100.00;101508.56;4978659;28;20546;-86
2021/04/23 03:06:18;;;;;;;13.60;6.17;;;;;;;2.14;100.00;101513.09;4961581;28;20069;-85
2021/04/23 03:08:44;;;;;;;11.83;6.10;;;;;;;2.12;100.00;101507.84;4963174;28;20038;-84
2021/04/23 03:11:19;;;;;;;10.67;5.17;;;;;;;2.17;100.00;101510.56;4959702;28;20069;-85
2021/04/23 03:13:48;;;;;;;14.30;6.77;;;;;;;2.23;100.00;101505.53;4959341;28;20049;-85
2021/04/23 03:16:15;;;;;;;13.50;5.63;;;;;;;2.28;100.00;101503.94;4959926;28;20046;-86
2021/04/23 03:18:42;;;;;;;14.00;6.27;;;;;;;2.22;100.00;101509.84;4961738;28;20038;-84
2021/04/23 03:21:11;;;;;;;12.07;5.80;;;;;;;2.26;100.00;101505.59;4977364;28;20136;-84
2021/04/23 03:23:38;;;;;;;13.20;6.03;;;;;;;2.30;100.00;101510.06;4959607;28;20185;-85
2021/04/23 03:26:07;;;;;;;15.33;7.60;;;;;;;2.31;100.00;101505.72;4963153;28;20096;-84
2021/04/23 03:28:35;;;;;;;16.07;8.43;;;;;;;2.34;100.00;101516.22;4975625;28;20542;-83
2021/04/23 03:31:02;;;;;;;12.60;6.17;;;;;;;2.36;100.00;101512.84;4973424;28;20052;-84
2021/04/23 03:33:31;;;;;;;13.17;6.60;;;;;;;2.40;100.00;101505.97;4956648;28;20144;-84
2021/04/23 03:35:59;;;;;;;12.17;5.33;;;;;;;2.43;100.00;101513.88;4964252;28;20505;-84
2021/04/23 03:38:27;;;;;;;14.10;6.03;;;;;;;2.44;100.00;101513.06;4958671;28;20054;-85
2021/04/23 03:40:54;;;;;;;11.60;6.63;;;;;;;2.48;100.00;101514.88;4961388;28;20034;-84
2021/04/23 03:43:21;;;;;;;15.30;7.63;;;;;;;2.45;100.00;101507.88;4953009;28;20050;-84
2021/04/23 03:45:52;;;;;;;15.13;6.63;;;;;;;2.50;100.00;101518.41;4973369;28;20042;-84
2021/04/23 03:48:19;;;;;;;15.53;5.97;;;;;;;2.48;100.00;101515.75;4960522;28;20046;-84
2021/04/23 03:50:46;;;;;;;12.13;5.83;;;;;;;2.54;100.00;101513.31;4961549;28;20042;-84
2021/04/23 03:53:14;;;;;;;15.70;7.03;;;;;;;2.56;100.00;101510.75;4962521;28;20525;-87
2021/04/23 03:55:43;;;;;;;11.80;6.33;;;;;;;2.58;100.00;101514.28;4974057;28;20050;-84
2021/04/23 03:58:10;;;;;;;15.57;6.93;;;;;;;2.61;100.00;101516.97;4964592;28;20038;-84
2021/04/23 04:00:39;;;;;;;12.53;6.80;;;;;;;2.64;100.00;101510.94;4960225;28;20050;-84
2021/04/23 04:03:06;;;;;;;14.73;7.87;;;;;;;2.60;100.00;101515.19;4953924;28;20073;-84
2021/04/23 04:05:34;;;;;;;15.80;7.97;;;;;;;2.58;100.00;101518.59;4954304;28;20053;-84
2021/04/23 04:08:00;;;;;;;12.50;7.40;;;;;;;2.56;100.00;101522.91;4964606;28;20076;-84
2021/04/23 04:10:27;;;;;;;15.53;7.63;;;;;;;2.54;100.00;101523.75;4962323;28;20487;-86
2021/04/23 04:12:53;;;;;;;13.60;7.03;;;;;;;2.61;100.00;101526.53;4962758;28;20110;-84
2021/04/23 04:15:20;;;;;;;13.93;6.47;;;;;;;2.62;100.00;101521.34;4955614;28;20050;-84
2021/04/23 04:17:46;;;;;;;14.07;6.13;;;;;;;2.66;100.00;101522.28;4961302;28;20048;-84
2021/04/23 04:20:14;;;;;;;13.33;6.30;;;;;;;2.68;100.00;101525.81;4961741;28;20065;-85
2021/04/23 04:22:41;;;;;;;14.33;5.10;;;;;;;2.66;100.00;101527.50;4961997;28;20057;-85
2021/04/23 04:25:11;;;;;;;14.53;6.17;;;;;;;2.72;100.00;101522.47;4960969;28;20046;-84
2021/04/23 04:27:37;;;;;;;14.57;6.13;;;;;;;2.77;100.00;101539.09;4946145;28;20100;-85
2021/04/23 04:30:06;;;;;;;15.00;5.73;;;;;;;2.81;100.00;101540.94;4976894;28;20446;-84
2021/04/23 04:32:32;;;;;;;18.93;6.60;;;;;;;2.86;100.00;101541.03;4970456;28;20488;-85
2021/04/23 04:34:58;;;;;;;17.00;7.93;;;;;;;2.88;100.00;101542.00;4973441;28;20492;-85
2021/04/23 04:37:24;;;;;;;13.33;6.27;;;;;;;2.93;100.00;101543.84;4961556;28;20030;-85
2021/04/23 04:39:50;;;;;;;14.63;6.67;;;;;;;3.01;100.00;101544.91;4975970;28;20137;-83
2021/04/23 04:42:19;;;;;;;14.90;5.77;;;;;;;3.05;100.00;101543.28;4961937;28;20077;-87
2021/04/23 04:44:46;;;;;;;15.93;6.63;;;;;;;3.06;100.00;101545.06;4970266;28;20043;-85
2021/04/23 04:47:12;;;;;;;15.00;7.00;;;;;;;3.12;100.00;101547.81;4977688;28;20065;-86
2021/04/23 04:49:39;;;;;;;17.63;10.43;;;;;;;3.14;100.00;101543.50;4965603;28;20048;-87
2021/04/23 04:52:05;;;;;;;14.37;8.53;;;;;;;3.30;100.00;101535.19;4971705;28;20033;-87
2021/04/23 04:54:31;;;;;;;16.73;8.13;;;;;;;3.27;100.00;101542.94;4965869;28;20044;-87
2021/04/23 04:56:58;;;;;;;19.00;8.27;;;;;;;3.36;100.00;101544.88;4959504;28;20041;-86
2021/04/23 04:59:24;;;;;;;10.27;4.83;;;;;;;3.16;100.00;101552.25;4962871;28;20132;-86
2021/04/23 05:01:51;;;;;;;8.57;4.67;;;;;;;3.15;100.00;101550.50;4980608;28;20533;-85
2021/04/23 05:04:17;;;;;;;12.47;5.43;;;;;;;3.18;100.00;101547.06;4962773;28;20081;-84
2021/04/23 05:06:46;;;;;;;14.00;5.80;;;;;;;3.31;100.00;101551.75;4962474;28;20077;-84
2021/04/23 05:09:13;;;;;;;9.57;5.43;;;;;;;3.26;100.00;101556.84;4972145;28;20046;-87
2021/04/23 05:11:39;;;;;;;16.50;7.30;;;;;;;3.35;100.00;101564.88;5028391;23;20046;-84
2021/04/23 05:14:06;;;;;;;15.77;5.90;;;;;;;3.35;100.00;101556.16;4990748;28;20052;-84
2021/04/23 05:16:32;;;;;;;15.93;6.83;;;;;;;3.41;100.00;101564.16;4992155;28;20046;-84
2021/04/23 05:18:58;;;;;;;13.57;7.77;;;;;;;3.49;100.00;101562.59;4955030;28;20058;-84
2021/04/23 05:21:25;;;;;;;15.73;6.77;;;;;;;3.57;100.00;101561.03;4951022;28;20050;-84
2021/04/23 05:23:51;;;;;;;18.40;7.03;;;;;;;3.68;100.00;101566.50;4955698;28;20047;-84
2021/04/23 05:26:17;;;;;;;17.97;6.50;;;;;;;3.89;100.00;101563.50;4955666;28;20074;-84
2021/04/23 05:28:44;;;;;;;17.33;6.50;;;;;;;4.07;100.00;101563.88;4985189;28;20054;-84
2021/04/23 05:31:11;;;;;;;16.03;8.23;;;;;;;4.27;100.00;101576.44;4957108;28;20058;-84
2021/04/23 05:33:38;;;;;;;16.33;9.43;;;;;;;4.26;100.00;101580.81;4952615;29;20047;-83
2021/04/23 05:36:06;;;;;;;16.90;7.67;;;;;;;4.19;100.00;101571.06;4951663;28;20237;-85
2021/04/23 05:38:35;;;;;;;15.90;7.27;;;;;;;4.36;100.00;101581.84;4972561;28;20038;-86
2021/04/23 05:41:01;;;;;;;19.73;8.10;;;;;;;4.32;100.00;101585.28;4953069;29;20102;-86
2021/04/23 05:43:28;;;;;;;19.90;6.67;;;;;;;4.34;100.00;101579.22;4940137;28;20456;-84
2021/04/23 05:45:57;;;;;;;16.77;6.03;;;;;;;4.42;100.00;101588.09;4956747;28;20062;-84
2021/04/23 05:48:23;;;;;;;18.73;6.73;;;;;;;4.49;100.00;101583.88;4972079;28;20070;-85
2021/04/23 05:50:49;;;;;;;17.67;6.83;;;;;;;4.42;100.00;101593.34;4955889;28;20043;-86
2021/04/23 05:53:16;;;;;;;16.83;7.10;;;;;;;4.39;100.00;101590.66;4973324;28;20503;-85
2021/04/23 05:55:42;;;;;;;12.87;7.60;;;;;;;4.59;100.00;101593.66;4958680;28;20075;-86
2021/04/23 05:58:10;;;;;;;16.57;6.67;;;;;;;4.75;99.76;101597.44;4970042;28;20615;-84
2021/04/23 06:00:42;;;;;;;14.30;7.03;;;;;;;4.90;100.00;101592.47;4941997;28;20069;-87
2021/04/23 06:03:10;;;;;;;20.37;6.97;;;;;;;5.07;100.00;101598.00;4974077;28;20550;-88
2021/04/23 06:05:37;;;;;;;18.20;6.83;;;;;;;5.27;97.80;101599.22;4956504;28;20439;-87
2021/04/23 06:08:06;;;;;;;13.30;6.40;;;;;;;5.39;97.91;101602.91;4946565;28;20070;-87
2021/04/23 06:10:39;;;;;;;14.93;6.90;;;;;;;5.32;98.37;101596.69;4958443;28;20141;-87
2021/04/23 06:13:05;;;;;;;17.20;7.40;;;;;;;5.45;97.95;101605.59;4971058;28;20057;-86
2021/04/23 06:15:31;;;;;;;15.53;6.97;;;;;;;5.65;96.56;101601.56;4940177;28;20047;-86
2021/04/23 06:17:57;;;;;;;17.73;5.57;;;;;;;5.81;95.31;101602.66;4938880;28;20579;-85
2021/04/23 06:20:29;;;;;;;16.60;6.77;;;;;;;5.82;90.68;101605.31;4942474;28;20050;-87
2021/04/23 06:22:57;;;;;;;12.17;5.87;;;;;;;6.10;90.48;101601.34;4938982;29;20094;-90
2021/04/23 06:25:25;;;;;;;17.27;7.27;;;;;;;5.91;88.67;101599.34;4935731;28;20058;-87
2021/04/23 06:27:52;;;;;;;12.20;5.60;;;;;;;6.76;90.70;101604.72;4972259;28;20046;-87
2021/04/23 06:30:29;;;;;;;14.33;6.97;;;;;;;6.92;80.81;101598.75;4958231;28;20078;-86
2021/04/23 06:33:07;;;;;;;12.00;6.63;;;;;;;7.11;81.83;101596.28;4943262;28;20093;-86
2021/04/23 06:35:34;;;;;;;9.43;5.27;;;;;;;6.78;82.08;101606.50;4952805;28;20456;-87
2021/04/23 06:38:00;;;;;;;12.73;5.90;;;;;;;6.72;83.79;101609.03;4953169;28;20046;-87
2021/04/23 06:40:27;;;;;;;14.67;6.03;;;;;;;6.33;81.61;101609.50;4979106;28;20050;-87
2021/04/23 06:43:23;;;;;;;14.30;4.97;;;;;;;6.09;85.12;101612.69;4955200;28;20046;-85
2021/04/23 06:45:55;;;;;;;14.73;5.43;;;;;;;6.23;88.34;101612.88;4950548;28;20047;-87
2021/04/23 06:48:22;;;;;;;15.27;5.00;;;;;;;6.37;84.93;101615.66;4965823;28;20504;-86
2021/04/23 06:50:49;;;;;;;14.37;4.87;;;;;;;6.48;83.44;101620.19;4951372;28;20069;-87
2021/04/23 06:53:15;;;;;;;15.73;5.30;;;;;;;6.57;81.93;101629.91;4945504;28;20475;-82
2021/04/23 06:55:43;;;;;;;14.77;5.03;;;;;;;7.00;79.79;101628.59;4951614;28;20066;-84
2021/04/23 06:58:13;;;;;;;11.53;4.90;;;;;;;7.34;84.08;101626.28;4970367;28;20125;-85
2021/04/23 07:00:41;;;;;;;12.13;4.50;;;;;;;7.55;79.26;101636.06;4973341;28;20046;-84
2021/04/23 07:03:10;;;;;;;11.73;5.40;;;;;;;7.38;78.97;101638.56;4959801;28;20453;-83
2021/04/23 07:05:42;;;;;;;10.53;4.93;;;;;;;7.37;75.27;101626.28;4975560;28;20393;-84
2021/04/23 07:08:09;;;;;;;8.87;4.50;;;;;;;7.32;75.27;101634.16;4978741;28;20035;-85
2021/04/23 07:10:36;;;;;;;11.60;4.33;;;;;;;7.11;73.69;101636.59;4941541;28;20055;-87
2021/04/23 07:13:03;;;;;;;13.23;4.73;;;;;;;7.08;76.17;101644.44;4952798;28;20038;-87
2021/04/23 07:15:31;;;;;;;12.23;4.47;;;;;;;7.00;75.89;101648.75;4941134;28;20467;-88
2021/04/23 07:17:58;;;;;;;9.90;4.53;;;;;;;6.86;73.83;101650.34;4956803;28;20065;-86
2021/04/23 07:20:39;;;;;;;12.33;4.13;;;;;;;6.70;74.21;101644.91;4971690;28;20046;-87
2021/04/23 07:23:06;;;;;;;7.10;4.30;;;;;;;6.92;76.69;101642.53;4973037;28;20078;-88
2021/04/23 07:25:32;;;;;;;8.30;4.30;;;;;;;7.27;74.79;101637.59;4939493;28;20043;-88
2021/04/23 07:27:59;;;;;;;9.20;4.97;;;;;;;8.02;76.19;101635.50;4968310;28;20039;-88
2021/04/23 07:30:29;;;;;;;9.50;3.80;;;;;;;8.31;71.37;101644.41;4968690;28;20047;-86
2021/04/23 07:32:57;;;;;;;9.60;4.47;;;;;;;8.31;73.37;101643.53;4947490;28;20417;-87
2021/04/23 07:35:24;;;;;;;8.40;4.17;;;;;;;8.27;74.66;101642.66;4963074;28;20049;-85
2021/04/23 07:37:55;;;;;;;8.10;3.87;;;;;;;8.38;74.49;101643.63;4973013;28;20034;-86
2021/04/23 07:40:21;;;;;;;10.33;3.93;;;;;;;8.29;71.04;101654.06;4988151;28;20039;-87
2021/04/23 07:42:47;;;;;;;8.87;4.17;;;;;;;7.76;70.44;101649.38;4956009;28;20042;-88
2021/04/23 07:45:15;;;;;;;9.10;3.70;;;;;;;7.89;69.99;101658.22;4956607;28;20043;-87
2021/04/23 07:47:43;;;;;;;10.17;4.43;;;;;;;7.31;69.64;101650.81;4956633;28;20086;-84
2021/04/23 07:50:11;;;;;;;14.67;4.33;;;;;;;7.76;70.48;101649.38;4988805;28;20121;-88
2021/04/23 07:52:38;;;;;;;11.63;4.33;;;;;;;7.80;69.00;101655.53;4935843;28;20049;-88
2021/04/23 07:55:06;;;;;;;16.47;4.33;;;;;;;8.12;71.48;101656.63;4968960;28;20042;-88
2021/04/23 07:57:36;;;;;;;10.10;3.93;;;;;;;8.22;70.02;101657.53;4939563;28;20039;-86
2021/04/23 08:00:06;;;;;;;9.80;4.53;;;;;;;7.85;66.56;101657.34;4950282;28;20059;-86
2021/04/23 08:02:33;;;;;;;11.00;5.13;;;;;;;8.03;69.47;101658.31;4953526;28;20050;-86
2021/04/23 08:04:59;;;;;;;11.23;3.77;;;;;;;8.22;67.88;101668.06;4953164;28;20436;-86
2021/04/23 08:07:46;;;;;;;7.43;4.20;;;;;;;8.26;70.82;101669.88;4953570;28;20074;-86
2021/04/23 08:10:14;;;;;;;8.90;3.40;;;;;;;7.93;66.42;101672.31;4934541;28;20042;-86
2021/04/23 08:12:41;;;;;;;9.67;3.80;;;;;;;8.27;71.54;101676.00;4969516;28;20050;-86
2021/04/23 08:15:09;;;;;;;8.77;3.60;;;;;;;8.34;72.88;101668.16;4969677;28;20049;-85
2021/04/23 08:17:36;;;;;;;9.73;4.47;;;;;;;8.57;69.68;101657.72;4953033;28;20062;-85
2021/04/23 08:20:07;;;;;;;8.07;3.90;;;;;;;8.81;70.17;101650.78;4971574;28;20669;-86
2021/04/23 08:22:35;;;;;;;13.77;4.63;;;;;;;9.06;71.72;101670.16;4950915;28;20788;-87
2021/04/23 08:25:03;;;;;;;9.00;3.50;;;;;;;9.02;64.68;101657.00;4937596;28;20050;-86
2021/04/23 08:27:29;;;;;;;10.63;4.40;;;;;;;9.49;66.71;101655.25;4952791;28;20047;-87
2021/04/23 08:29:55;;;;;;;9.02;4.35;;;;;;;9.92;66.44;101658.75;4956770;28;20046;-87
2021/04/23 08:32:24;;;;;;;8.65;4.68;;;;;;;9.73;62.71;101657.00;4970373;28;20055;-87
2021/04/23 08:34:51;;;;;;;10.07;3.72;;;;;;;9.52;62.12;101677.25;4970068;28;20049;-86
2021/04/23 08:37:17;;;;;;;9.20;4.65;;;;;;;9.17;61.60;101684.25;4954233;28;20043;-85
2021/04/23 08:39:44;;;;;;;12.30;4.53;;;;;;;9.18;64.61;101664.94;4955532;28;20496;-86
2021/04/23 08:42:10;;;;;;;13.93;4.07;;;;;;;9.68;64.35;101669.34;4949130;28;20070;-86
2021/04/23 08:44:37;;;;;;;11.15;3.58;;;;;;;9.51;60.80;101672.00;4952888;28;20047;-85
2021/04/23 08:47:03;;;;;;;10.38;4.40;;;;;;;9.68;62.42;101679.91;4951830;28;20034;-87
2021/04/23 08:49:30;;;;;;;6.68;3.60;;;;;;;9.18;59.77;101679.00;4963298;28;20055;-86
2021/04/23 08:51:57;;;;;;;8.18;3.88;;;;;;;8.93;61.11;101680.69;4950682;28;20433;-86
2021/04/23 08:54:24;;;;;;;8.18;3.35;;;;;;;9.14;61.94;101676.34;4961726;28;20042;-85
2021/04/23 08:56:51;;;;;;;11.05;4.60;;;;;;;9.21;60.31;101681.63;4953825;28;20130;-86
2021/04/23 08:59:18;;;;;;;10.05;3.42;;;;;;;9.39;59.51;101671.97;4969079;28;20388;-85
2021/04/23 09:01:44;;;;;;;10.02;3.97;;;;;;;10.02;63.16;101668.41;4967670;28;20065;-87
2021/04/23 09:04:12;;;;;;;7.15;3.85;;;;;;;10.46;60.96;101664.78;4968085;28;20042;-86
2021/04/23 09:06:39;;;;;;;10.27;3.50;;;;;;;10.37;57.19;101665.69;4956624;28;20070;-87
2021/04/23 09:09:11;;;;;;;12.10;3.85;;;;;;;10.34;60.25;101670.09;4967042;28;20089;-86
2021/04/23 09:11:44;;;;;;;12.68;4.10;;;;;;;10.60;59.47;101683.25;4968568;28;20448;-84
2021/04/23 09:14:21;;;;;;;9.98;3.90;;;;;;;11.04;61.20;101677.72;4969601;28;20086;-84
2021/04/23 09:16:49;;;;;;;7.40;3.60;;;;;;;10.35;57.64;101667.47;4931673;28;20043;-83
2021/04/23 09:19:27;;;;;;;10.27;3.65;;;;;;;11.01;60.34;101669.78;4965416;28;20047;-83
2021/04/23 09:22:00;;;;;;;11.32;4.75;;;;;;;10.90;54.74;101671.63;4951086;28;20047;-84
2021/04/23 09:24:40;;;;;;;9.23;3.72;;;;;;;11.07;56.42;101675.03;4952379;28;20043;-83
2021/04/23 09:27:18;;;;;;;9.65;4.43;;;;;;;11.46;57.62;101667.72;4952384;28;20067;-83
2021/04/23 09:29:47;;;;;;;9.88;3.70;;;;;;;11.33;55.86;101673.97;4947965;28;20042;-84
2021/04/23 09:32:25;;;;;;;7.10;3.42;;;;;;;11.76;52.17;101667.44;4947893;28;20039;-83
2021/04/23 09:35:00;;;;;;;10.40;4.32;;;;;;;11.69;54.18;101663.13;4967431;28;20523;-83
2021/04/23 09:37:29;;;;;;;10.27;4.03;;;;;;;12.02;54.90;101658.38;4970134;28;20047;-84
2021/04/23 09:40:12;;;;;;;6.35;3.83;;;;;;;11.73;54.14;101678.06;4970420;28;20094;-83
2021/04/23 09:42:44;;;;;;;7.75;3.47;;;;;;;11.58;51.05;101672.91;4952949;28;20100;-84
2021/04/23 09:45:10;;;;;;;7.88;3.22;;;;;;;11.50;51.51;101674.72;4979303;28;20043;-82
2021/04/23 09:47:38;;;;;;;8.98;4.13;;;;;;;11.18;52.57;101670.56;4951256;28;20046;-83
2021/04/23 09:50:06;;;;;;;6.75;2.78;;;;;;;11.65;54.76;101676.38;4953736;28;20167;-84
2021/04/23 09:52:33;;;;;;;9.73;3.67;;;;;;;11.77;52.21;101671.88;4950211;28;20528;-83
2021/04/23 09:55:03;;;;;;;6.20;2.50;;;;;;;12.13;53.82;101671.53;4970553;28;20113;-83
2021/04/23 09:57:36;;;;;;;7.15;3.10;;;;;;;12.34;49.50;101665.97;4962744;28;20043;-84
2021/04/23 10:00:08;;;;;;;5.27;2.80;;;;;;;12.31;51.53;101681.94;4950365;28;20043;-83
2021/04/23 10:02:35;;;;;;;9.70;3.67;;;;;;;12.61;50.92;101670.97;4956608;28;20301;-84
2021/04/23 10:05:03;;;;;;;11.18;3.17;;;;;;;12.94;53.48;101680.22;4959088;28;20083;-83
2021/04/23 10:07:32;;;;;;;4.90;2.88;;;;;;;12.88;51.15;101690.94;4951713;28;20035;-83
2021/04/23 10:10:01;;;;;;;8.88;3.67;;;;;;;13.09;50.58;101691.53;4974040;28;20035;-83
2021/04/23 10:12:27;;;;;;;7.28;3.50;;;;;;;12.45;47.08;101705.63;4986667;28;20046;-82
2021/04/23 10:15:03;;;;;;;9.27;3.17;;;;;;;12.32;50.83;101692.50;4973411;28;20046;-83
2021/04/23 10:17:30;;;;;;;6.40;3.08;;;;;;;12.02;47.74;101706.97;4958777;28;20041;-84
2021/04/23 10:19:57;;;;;;;6.82;3.17;;;;;;;11.97;50.45;101676.13;4958668;28;20168;-83
2021/04/23 10:22:24;;;;;;;6.28;2.63;;;;;;;11.87;50.88;101677.97;4958359;28;20090;-85
2021/04/23 10:24:51;;;;;;;9.82;2.70;;;;;;;11.08;51.24;101687.38;4943180;28;20039;-84
2021/04/23 10:27:18;;;;;;;7.68;2.70;;;;;;;11.52;50.85;101691.50;4974817;28;20082;-82
2021/04/23 10:29:48;;;;;;;9.93;4.05;;;;;;;11.46;52.01;101692.41;4976015;28;20074;-84
2021/04/23 10:32:15;;;;;;;8.13;3.83;;;;;;;11.14;51.89;101708.50;4960497;28;20062;-83
2021/04/23 10:34:42;;;;;;;7.82;2.90;;;;;;;12.16;54.97;101693.56;4952587;28;20099;-85
2021/04/23 10:37:10;;;;;;;5.85;3.13;;;;;;;12.78;51.93;101691.06;4946489;28;20042;-85
2021/04/23 10:39:40;;;;;;;8.82;3.10;;;;;;;13.21;48.95;101696.69;4958179;28;20050;-84
2021/04/23 10:42:39;;;;;;;7.13;3.03;;;;;;;12.99;47.69;101697.88;4974857;28;20095;-84
2021/04/23 10:45:15;;;;;;;6.38;2.97;;;;;;;13.18;45.71;101710.84;4985631;28;20064;-85
2021/04/23 10:47:41;;;;;;;5.78;2.95;;;;;;;12.67;46.95;101709.75;4966387;28;20111;-86
2021/04/23 10:50:26;;;;;;;4.55;2.45;;;;;;;12.74;48.42;101718.53;4966850;28;20094;-86
2021/04/23 10:53:01;;;;;;;6.47;2.80;;;;;;;12.87;46.55;101715.72;4973351;28;20101;-87
2021/04/23 10:55:45;;;;;;;4.28;2.40;;;;;;;12.52;46.66;101715.25;4967277;28;20038;-85
2021/04/23 10:58:15;;;;;;;4.97;2.70;;;;;;;12.01;48.42;101709.59;4964797;28;20050;-84
2021/04/23 11:00:44;;;;;;;8.93;3.63;;;;;;;11.84;46.69;101708.00;4974322;28;20038;-83
2021/04/23 11:03:20;;;;;;;7.60;2.53;;;;;;;11.95;47.30;101714.97;4973155;28;20705;-86
2021/04/23 11:05:51;;;;;;;8.95;2.88;;;;;;;11.65;48.97;101710.78;4976467;28;20142;-86
2021/04/23 11:08:17;;;;;;;6.20;2.60;;;;;;;12.15;50.57;101717.44;4973218;28;20071;-85
2021/04/23 11:11:15;;;;;;;7.80;2.63;;;;;;;11.74;50.82;101723.94;4959002;28;20051;-85
2021/04/23 11:13:46;;;;;;;5.60;2.28;;;;;;;11.98;48.85;101730.84;4973088;28;20697;-84
2021/04/23 11:16:19;;;;;;;8.93;2.50;;;;;;;12.27;45.97;101722.59;4973350;28;20062;-86
2021/04/23 11:18:47;;;;;;;6.95;2.80;;;;;;;12.58;47.64;101715.19;4973869;28;20035;-84
2021/04/23 11:21:34;;;;;;;8.60;3.00;;;;;;;12.16;43.61;101719.19;4941672;28;20424;-84
2021/04/23 11:24:26;;;;;;;8.40;3.38;;;;;;;12.11;47.13;101713.94;4986814;28;20039;-84
2021/04/23 11:27:05;;;;;;;6.97;2.35;;;;;;;12.59;50.09;101708.97;4972112;28;20042;-83
2021/04/23 11:29:50;;;;;;;4.95;2.10;;;;;;;13.14;46.32;101716.22;4971330;28;20042;-86